sensor_id;sensor_type;location;lat;lon;timestamp;temperature;humidity
9776;DHT22;4927;52.472;13.108;2023-01-16T00:02:30;4.50;99.90
9776;DHT22;4927;52.472;13.108;2023-01-16T00:07:40;4.50;99.90
9776;DHT22;4927;52.472;13.108;2023-01-16T00:12:51;4.50;99.90
9776;DHT22;4927;52.472;13.108;2023-01-16T00:18:01;4.50;99.90
9776;DHT22;4927;52.472;13.108;2023-01-16T00:23:11;4.50;99.90
9776;DHT22;4927;52.472;13.108;2023-01-16T00:28:18;4.50;99.90
9776;DHT22;4927;52.472;13.108;2023-01-16T00:33:28;4.50;99.90
9776;DHT22;4927;52.472;13.108;2023-01-16T00:38:38;4.40;99.90
9776;DHT22;4927;52.472;13.108;2023-01-16T00:43:48;4.30;99.90
9776;DHT22;4927;52.472;13.108;2023-01-16T00:49:00;4.20;99.90
9776;DHT22;4927;52.472;13.108;2023-01-16T00:54:10;4.20;99.90
9776;DHT22;4927;52.472;13.108;2023-01-16T00:59:22;4.20;99.90
9776;DHT22;4927;52.472;13.108;2023-01-16T01:04:32;4.20;99.90
9776;DHT22;4927;52.472;13.108;2023-01-16T01:09:42;4.20;99.90
9776;DHT22;4927;52.472;13.108;2023-01-16T01:14:53;4.10;99.90
9776;DHT22;4927;52.472;13.108;2023-01-16T01:20:04;4.10;99.90
9776;DHT22;4927;52.472;13.108;2023-01-16T01:25:15;4.00;99.90
9776;DHT22;4927;52.472;13.108;2023-01-16T01:30:26;3.90;99.90
9776;DHT22;4927;52.472;13.108;2023-01-16T01:35:32;3.90;99.90
9776;DHT22;4927;52.472;13.108;2023-01-16T01:40:38;3.90;99.90
9776;DHT22;4927;52.472;13.108;2023-01-16T01:45:51;3.90;99.90
9776;DHT22;4927;52.472;13.108;2023-01-16T01:51:00;3.80;99.90
9776;DHT22;4927;52.472;13.108;2023-01-16T01:56:08;3.80;99.90
9776;DHT22;4927;52.472;13.108;2023-01-16T02:01:17;3.90;99.90
9776;DHT22;4927;52.472;13.108;2023-01-16T02:06:25;3.90;99.90
9776;DHT22;4927;52.472;13.108;2023-01-16T02:11:35;3.90;99.90
9776;DHT22;4927;52.472;13.108;2023-01-16T02:16:45;4.00;99.90
9776;DHT22;4927;52.472;13.108;2023-01-16T02:22:13;3.90;99.90
9776;DHT22;4927;52.472;13.108;2023-01-16T02:27:46;4.00;99.90
9776;DHT22;4927;52.472;13.108;2023-01-16T02:33:06;4.00;99.90
9776;DHT22;4927;52.472;13.108;2023-01-16T02:43:46;4.00;99.90
9776;DHT22;4927;52.472;13.108;2023-01-16T02:49:20;4.00;99.90
9776;DHT22;4927;52.472;13.108;2023-01-16T02:54:31;3.90;99.90
9776;DHT22;4927;52.472;13.108;2023-01-16T02:59:39;3.90;99.90
9776;DHT22;4927;52.472;13.108;2023-01-16T03:04:49;3.80;99.90
9776;DHT22;4927;52.472;13.108;2023-01-16T03:10:14;3.80;99.90
9776;DHT22;4927;52.472;13.108;2023-01-16T03:15:33;3.70;99.90
9776;DHT22;4927;52.472;13.108;2023-01-16T03:20:54;3.70;99.90
9776;DHT22;4927;52.472;13.108;2023-01-16T03:25:59;3.70;99.90
9776;DHT22;4927;52.472;13.108;2023-01-16T03:31:15;3.60;99.90
9776;DHT22;4927;52.472;13.108;2023-01-16T03:36:24;3.60;99.90
9776;DHT22;4927;52.472;13.108;2023-01-16T03:41:28;3.70;99.90
9776;DHT22;4927;52.472;13.108;2023-01-16T03:46:45;3.60;99.90
9776;DHT22;4927;52.472;13.108;2023-01-16T03:51:51;3.60;99.90
9776;DHT22;4927;52.472;13.108;2023-01-16T04:02:22;3.70;99.90
9776;DHT22;4927;52.472;13.108;2023-01-16T04:07:34;3.60;99.90
9776;DHT22;4927;52.472;13.108;2023-01-16T04:12:39;3.60;99.90
9776;DHT22;4927;52.472;13.108;2023-01-16T04:17:47;3.60;99.90
9776;DHT22;4927;52.472;13.108;2023-01-16T04:22:53;3.60;99.90
9776;DHT22;4927;52.472;13.108;2023-01-16T04:27:59;3.60;99.90
9776;DHT22;4927;52.472;13.108;2023-01-16T04:33:05;3.50;99.90
9776;DHT22;4927;52.472;13.108;2023-01-16T04:38:12;3.50;99.90
9776;DHT22;4927;52.472;13.108;2023-01-16T04:43:18;3.50;99.90
9776;DHT22;4927;52.472;13.108;2023-01-16T04:48:24;3.40;99.90
9776;DHT22;4927;52.472;13.108;2023-01-16T04:53:30;3.40;99.90
9776;DHT22;4927;52.472;13.108;2023-01-16T04:58:37;3.30;99.90
9776;DHT22;4927;52.472;13.108;2023-01-16T05:03:46;3.30;99.90
9776;DHT22;4927;52.472;13.108;2023-01-16T05:08:53;3.30;99.90
9776;DHT22;4927;52.472;13.108;2023-01-16T05:13:59;3.30;99.90
9776;DHT22;4927;52.472;13.108;2023-01-16T05:19:05;3.40;99.90
9776;DHT22;4927;52.472;13.108;2023-01-16T05:24:15;3.30;99.90
9776;DHT22;4927;52.472;13.108;2023-01-16T05:29:22;3.30;99.90
9776;DHT22;4927;52.472;13.108;2023-01-16T05:34:28;3.30;99.90
9776;DHT22;4927;52.472;13.108;2023-01-16T05:39:34;3.30;99.90
9776;DHT22;4927;52.472;13.108;2023-01-16T05:44:40;3.30;99.90
9776;DHT22;4927;52.472;13.108;2023-01-16T05:49:47;3.30;99.90
9776;DHT22;4927;52.472;13.108;2023-01-16T05:54:53;3.30;99.90
9776;DHT22;4927;52.472;13.108;2023-01-16T05:59:57;3.30;99.90
9776;DHT22;4927;52.472;13.108;2023-01-16T06:05:04;3.30;99.90
9776;DHT22;4927;52.472;13.108;2023-01-16T06:10:11;3.40;99.90
9776;DHT22;4927;52.472;13.108;2023-01-16T06:15:17;3.40;99.90
9776;DHT22;4927;52.472;13.108;2023-01-16T06:20:23;3.30;99.90
9776;DHT22;4927;52.472;13.108;2023-01-16T06:25:28;3.40;99.90
9776;DHT22;4927;52.472;13.108;2023-01-16T06:30:38;3.40;99.90
9776;DHT22;4927;52.472;13.108;2023-01-16T06:35:45;3.30;99.90
9776;DHT22;4927;52.472;13.108;2023-01-16T06:40:55;3.40;99.90
9776;DHT22;4927;52.472;13.108;2023-01-16T06:46:03;3.30;99.90
9776;DHT22;4927;52.472;13.108;2023-01-16T06:51:09;3.40;99.90
9776;DHT22;4927;52.472;13.108;2023-01-16T06:56:15;3.40;99.90
9776;DHT22;4927;52.472;13.108;2023-01-16T07:01:22;3.40;99.90
9776;DHT22;4927;52.472;13.108;2023-01-16T07:06:28;3.40;99.90
9776;DHT22;4927;52.472;13.108;2023-01-16T07:11:35;3.40;99.90
9776;DHT22;4927;52.472;13.108;2023-01-16T07:16:41;3.40;99.90
9776;DHT22;4927;52.472;13.108;2023-01-16T07:21:54;3.30;99.90
9776;DHT22;4927;52.472;13.108;2023-01-16T07:27:06;3.30;99.90
9776;DHT22;4927;52.472;13.108;2023-01-16T07:32:13;3.30;99.90
9776;DHT22;4927;52.472;13.108;2023-01-16T07:37:23;3.20;99.90
9776;DHT22;4927;52.472;13.108;2023-01-16T07:42:29;3.20;99.90
9776;DHT22;4927;52.472;13.108;2023-01-16T07:47:36;3.30;99.90
9776;DHT22;4927;52.472;13.108;2023-01-16T07:52:42;3.40;99.90
9776;DHT22;4927;52.472;13.108;2023-01-16T07:57:48;3.40;99.90
9776;DHT22;4927;52.472;13.108;2023-01-16T08:02:53;3.40;99.90
9776;DHT22;4927;52.472;13.108;2023-01-16T08:07:59;3.40;99.90
9776;DHT22;4927;52.472;13.108;2023-01-16T08:13:05;3.40;99.90
9776;DHT22;4927;52.472;13.108;2023-01-16T08:18:11;3.50;99.90
9776;DHT22;4927;52.472;13.108;2023-01-16T08:23:18;3.60;99.90
9776;DHT22;4927;52.472;13.108;2023-01-16T08:28:22;3.70;99.90
9776;DHT22;4927;52.472;13.108;2023-01-16T08:33:28;3.80;99.90
9776;DHT22;4927;52.472;13.108;2023-01-16T08:38:32;3.90;99.90
9776;DHT22;4927;52.472;13.108;2023-01-16T08:43:38;4.00;99.90
9776;DHT22;4927;52.472;13.108;2023-01-16T08:48:52;4.10;99.90
9776;DHT22;4927;52.472;13.108;2023-01-16T08:54:03;4.10;99.90
9776;DHT22;4927;52.472;13.108;2023-01-16T08:59:09;4.00;99.90
9776;DHT22;4927;52.472;13.108;2023-01-16T09:04:15;4.00;99.90
9776;DHT22;4927;52.472;13.108;2023-01-16T09:09:22;4.10;99.90
9776;DHT22;4927;52.472;13.108;2023-01-16T09:14:28;4.20;99.90
9776;DHT22;4927;52.472;13.108;2023-01-16T09:19:39;4.30;99.90
9776;DHT22;4927;52.472;13.108;2023-01-16T09:24:51;4.30;99.90
9776;DHT22;4927;52.472;13.108;2023-01-16T09:30:03;4.40;99.90
9776;DHT22;4927;52.472;13.108;2023-01-16T09:35:08;4.40;99.90
9776;DHT22;4927;52.472;13.108;2023-01-16T09:40:19;4.50;99.90
9776;DHT22;4927;52.472;13.108;2023-01-16T09:45:30;4.60;99.90
9776;DHT22;4927;52.472;13.108;2023-01-16T09:50:42;4.70;99.90
9776;DHT22;4927;52.472;13.108;2023-01-16T09:55:50;4.80;99.90
9776;DHT22;4927;52.472;13.108;2023-01-16T10:01:09;4.90;99.90
9776;DHT22;4927;52.472;13.108;2023-01-16T10:06:25;5.00;99.90
9776;DHT22;4927;52.472;13.108;2023-01-16T10:11:41;5.10;99.90
9776;DHT22;4927;52.472;13.108;2023-01-16T10:16:56;5.20;99.90
9776;DHT22;4927;52.472;13.108;2023-01-16T10:22:02;5.20;99.90
9776;DHT22;4927;52.472;13.108;2023-01-16T10:27:13;5.30;99.90
9776;DHT22;4927;52.472;13.108;2023-01-16T10:32:24;5.30;99.90
9776;DHT22;4927;52.472;13.108;2023-01-16T10:37:32;5.40;99.90
9776;DHT22;4927;52.472;13.108;2023-01-16T10:42:42;5.50;99.90
9776;DHT22;4927;52.472;13.108;2023-01-16T10:47:59;5.60;99.90
9776;DHT22;4927;52.472;13.108;2023-01-16T10:53:15;5.70;99.90
9776;DHT22;4927;52.472;13.108;2023-01-16T10:58:28;5.80;99.90
9776;DHT22;4927;52.472;13.108;2023-01-16T11:03:46;6.10;99.90
9776;DHT22;4927;52.472;13.108;2023-01-16T11:09:00;6.20;99.90
9776;DHT22;4927;52.472;13.108;2023-01-16T11:14:13;6.50;99.90
9776;DHT22;4927;52.472;13.108;2023-01-16T11:19:28;6.80;99.90
9776;DHT22;4927;52.472;13.108;2023-01-16T11:24:35;7.20;99.90
9776;DHT22;4927;52.472;13.108;2023-01-16T11:29:45;7.30;99.90
9776;DHT22;4927;52.472;13.108;2023-01-16T11:34:56;7.60;99.90
9776;DHT22;4927;52.472;13.108;2023-01-16T11:40:03;7.60;99.90
9776;DHT22;4927;52.472;13.108;2023-01-16T11:45:17;7.80;99.90
9776;DHT22;4927;52.472;13.108;2023-01-16T11:50:34;7.90;99.90
9776;DHT22;4927;52.472;13.108;2023-01-16T11:55:49;7.90;99.90
9776;DHT22;4927;52.472;13.108;2023-01-16T12:00:58;7.80;99.90
9776;DHT22;4927;52.472;13.108;2023-01-16T12:06:36;7.80;99.90
9776;DHT22;4927;52.472;13.108;2023-01-16T12:12:06;7.80;99.90
9776;DHT22;4927;52.472;13.108;2023-01-16T12:22:46;8.30;99.90
9776;DHT22;4927;52.472;13.108;2023-01-16T12:28:01;8.30;99.90
9776;DHT22;4927;52.472;13.108;2023-01-16T12:33:17;8.30;99.90
9776;DHT22;4927;52.472;13.108;2023-01-16T12:38:26;8.30;99.90
9776;DHT22;4927;52.472;13.108;2023-01-16T12:43:36;8.20;99.90
9776;DHT22;4927;52.472;13.108;2023-01-16T12:48:49;8.40;99.90
9776;DHT22;4927;52.472;13.108;2023-01-16T12:54:21;8.40;99.90
9776;DHT22;4927;52.472;13.108;2023-01-16T12:59:47;8.30;99.90
9776;DHT22;4927;52.472;13.108;2023-01-16T13:04:59;8.30;99.90
9776;DHT22;4927;52.472;13.108;2023-01-16T13:10:17;8.30;99.90
9776;DHT22;4927;52.472;13.108;2023-01-16T13:15:34;8.20;99.90
9776;DHT22;4927;52.472;13.108;2023-01-16T13:20:43;8.00;99.90
9776;DHT22;4927;52.472;13.108;2023-01-16T13:25:56;8.00;99.90
9776;DHT22;4927;52.472;13.108;2023-01-16T13:31:06;7.80;99.90
9776;DHT22;4927;52.472;13.108;2023-01-16T13:41:29;7.70;99.90
9776;DHT22;4927;52.472;13.108;2023-01-16T13:46:38;7.60;99.90
9776;DHT22;4927;52.472;13.108;2023-01-16T13:51:49;7.60;99.90
9776;DHT22;4927;52.472;13.108;2023-01-16T13:57:00;7.50;99.90
9776;DHT22;4927;52.472;13.108;2023-01-16T14:02:21;7.50;99.90
9776;DHT22;4927;52.472;13.108;2023-01-16T14:07:44;7.30;99.90
9776;DHT22;4927;52.472;13.108;2023-01-16T14:12:41;7.20;99.90
9776;DHT22;4927;52.472;13.108;2023-01-16T14:18:01;7.20;99.90
9776;DHT22;4927;52.472;13.108;2023-01-16T14:23:23;7.20;99.90
9776;DHT22;4927;52.472;13.108;2023-01-16T14:28:38;7.00;99.90
9776;DHT22;4927;52.472;13.108;2023-01-16T14:33:48;7.00;99.90
9776;DHT22;4927;52.472;13.108;2023-01-16T14:38:59;7.00;99.90
9776;DHT22;4927;52.472;13.108;2023-01-16T14:44:12;6.90;99.90
9776;DHT22;4927;52.472;13.108;2023-01-16T14:49:40;6.80;99.90
9776;DHT22;4927;52.472;13.108;2023-01-16T14:54:56;6.70;99.90
9776;DHT22;4927;52.472;13.108;2023-01-16T15:00:15;6.50;99.90
9776;DHT22;4927;52.472;13.108;2023-01-16T15:05:33;6.50;99.90
9776;DHT22;4927;52.472;13.108;2023-01-16T15:10:39;6.40;99.90
9776;DHT22;4927;52.472;13.108;2023-01-16T15:15:51;6.30;99.90
9776;DHT22;4927;52.472;13.108;2023-01-16T15:21:00;6.20;99.90
9776;DHT22;4927;52.472;13.108;2023-01-16T15:26:29;6.00;99.90
9776;DHT22;4927;52.472;13.108;2023-01-16T15:31:39;6.00;99.90
9776;DHT22;4927;52.472;13.108;2023-01-16T15:36:51;5.90;99.90
9776;DHT22;4927;52.472;13.108;2023-01-16T15:42:04;5.90;99.90
9776;DHT22;4927;52.472;13.108;2023-01-16T15:52:35;5.80;99.90
9776;DHT22;4927;52.472;13.108;2023-01-16T15:57:46;5.70;99.90
9776;DHT22;4927;52.472;13.108;2023-01-16T16:02:58;5.60;99.90
9776;DHT22;4927;52.472;13.108;2023-01-16T16:08:10;5.50;99.90
9776;DHT22;4927;52.472;13.108;2023-01-16T16:13:18;5.50;99.90
9776;DHT22;4927;52.472;13.108;2023-01-16T16:18:24;5.50;99.90
9776;DHT22;4927;52.472;13.108;2023-01-16T16:23:34;5.30;99.90
9776;DHT22;4927;52.472;13.108;2023-01-16T16:28:45;5.30;99.90
9776;DHT22;4927;52.472;13.108;2023-01-16T16:34:00;5.20;99.90
9776;DHT22;4927;52.472;13.108;2023-01-16T16:39:35;5.10;99.90
9776;DHT22;4927;52.472;13.108;2023-01-16T16:44:39;5.00;99.90
9776;DHT22;4927;52.472;13.108;2023-01-16T16:49:48;5.00;99.90
9776;DHT22;4927;52.472;13.108;2023-01-16T16:54:59;4.90;99.90
9776;DHT22;4927;52.472;13.108;2023-01-16T17:00:13;5.00;99.90
9776;DHT22;4927;52.472;13.108;2023-01-16T17:05:23;4.80;99.90
9776;DHT22;4927;52.472;13.108;2023-01-16T17:10:33;4.70;99.90
9776;DHT22;4927;52.472;13.108;2023-01-16T17:15:44;4.70;99.90
9776;DHT22;4927;52.472;13.108;2023-01-16T17:20:50;4.70;99.90
9776;DHT22;4927;52.472;13.108;2023-01-16T17:26:00;4.70;99.90
9776;DHT22;4927;52.472;13.108;2023-01-16T17:31:12;4.80;99.90
9776;DHT22;4927;52.472;13.108;2023-01-16T17:36:20;4.90;99.90
9776;DHT22;4927;52.472;13.108;2023-01-16T17:41:29;4.90;99.90
9776;DHT22;4927;52.472;13.108;2023-01-16T17:46:50;4.80;99.90
9776;DHT22;4927;52.472;13.108;2023-01-16T17:52:01;4.80;99.90
9776;DHT22;4927;52.472;13.108;2023-01-16T17:57:07;4.80;99.90
9776;DHT22;4927;52.472;13.108;2023-01-16T18:02:17;4.80;99.90
9776;DHT22;4927;52.472;13.108;2023-01-16T18:07:21;4.80;99.90
9776;DHT22;4927;52.472;13.108;2023-01-16T18:12:32;4.70;99.90
9776;DHT22;4927;52.472;13.108;2023-01-16T18:17:48;4.70;99.90
9776;DHT22;4927;52.472;13.108;2023-01-16T18:22:59;4.70;99.90
9776;DHT22;4927;52.472;13.108;2023-01-16T18:28:09;4.70;99.90
9776;DHT22;4927;52.472;13.108;2023-01-16T18:33:15;4.70;99.90
9776;DHT22;4927;52.472;13.108;2023-01-16T18:38:25;4.70;99.90
9776;DHT22;4927;52.472;13.108;2023-01-16T18:49:24;4.60;99.90
9776;DHT22;4927;52.472;13.108;2023-01-16T18:54:40;4.60;99.90
9776;DHT22;4927;52.472;13.108;2023-01-16T18:59:56;4.60;99.90
9776;DHT22;4927;52.472;13.108;2023-01-16T19:05:13;4.50;99.90
9776;DHT22;4927;52.472;13.108;2023-01-16T19:10:24;4.50;99.90
9776;DHT22;4927;52.472;13.108;2023-01-16T19:15:29;4.50;99.90
9776;DHT22;4927;52.472;13.108;2023-01-16T19:20:39;4.60;99.90
9776;DHT22;4927;52.472;13.108;2023-01-16T19:25:50;4.60;99.90
9776;DHT22;4927;52.472;13.108;2023-01-16T19:30:56;4.60;99.90
9776;DHT22;4927;52.472;13.108;2023-01-16T19:36:07;4.60;99.90
9776;DHT22;4927;52.472;13.108;2023-01-16T19:41:14;4.60;99.90
9776;DHT22;4927;52.472;13.108;2023-01-16T19:46:31;4.60;99.90
9776;DHT22;4927;52.472;13.108;2023-01-16T19:51:43;4.60;99.90
9776;DHT22;4927;52.472;13.108;2023-01-16T19:56:49;4.60;99.90
9776;DHT22;4927;52.472;13.108;2023-01-16T20:01:56;4.70;99.90
9776;DHT22;4927;52.472;13.108;2023-01-16T20:07:07;4.60;99.90
9776;DHT22;4927;52.472;13.108;2023-01-16T20:12:13;4.60;99.90
9776;DHT22;4927;52.472;13.108;2023-01-16T20:17:33;4.50;99.90
9776;DHT22;4927;52.472;13.108;2023-01-16T20:22:35;4.60;99.90
9776;DHT22;4927;52.472;13.108;2023-01-16T20:27:41;4.50;99.90
9776;DHT22;4927;52.472;13.108;2023-01-16T20:32:47;4.60;99.90
9776;DHT22;4927;52.472;13.108;2023-01-16T20:37:58;4.50;99.90
9776;DHT22;4927;52.472;13.108;2023-01-16T20:43:07;4.50;99.90
9776;DHT22;4927;52.472;13.108;2023-01-16T20:48:17;4.50;99.90
9776;DHT22;4927;52.472;13.108;2023-01-16T20:53:24;4.50;99.90
9776;DHT22;4927;52.472;13.108;2023-01-16T20:58:34;4.50;99.90
9776;DHT22;4927;52.472;13.108;2023-01-16T21:03:41;4.60;99.90
9776;DHT22;4927;52.472;13.108;2023-01-16T21:08:57;4.50;99.90
9776;DHT22;4927;52.472;13.108;2023-01-16T21:19:29;4.60;99.90
9776;DHT22;4927;52.472;13.108;2023-01-16T21:24:45;4.50;99.90
9776;DHT22;4927;52.472;13.108;2023-01-16T21:29:58;4.50;99.90
9776;DHT22;4927;52.472;13.108;2023-01-16T21:35:08;4.40;99.90
9776;DHT22;4927;52.472;13.108;2023-01-16T21:54:13;4.30;99.90
9776;DHT22;4927;52.472;13.108;2023-01-16T21:59:24;4.30;99.90
9776;DHT22;4927;52.472;13.108;2023-01-16T22:04:34;4.30;99.90
9776;DHT22;4927;52.472;13.108;2023-01-16T22:09:40;4.30;99.90
9776;DHT22;4927;52.472;13.108;2023-01-16T22:14:50;4.30;99.90
9776;DHT22;4927;52.472;13.108;2023-01-16T22:20:10;4.20;99.90
9776;DHT22;4927;52.472;13.108;2023-01-16T22:25:33;4.20;99.90
9776;DHT22;4927;52.472;13.108;2023-01-16T22:30:39;4.20;99.90
9776;DHT22;4927;52.472;13.108;2023-01-16T22:35:54;4.20;99.90
9776;DHT22;4927;52.472;13.108;2023-01-16T22:41:00;4.20;99.90
9776;DHT22;4927;52.472;13.108;2023-01-16T22:46:05;4.20;99.90
9776;DHT22;4927;52.472;13.108;2023-01-16T22:55:53;4.20;99.90
9776;DHT22;4927;52.472;13.108;2023-01-16T23:01:10;4.10;99.90
9776;DHT22;4927;52.472;13.108;2023-01-16T23:06:19;4.10;99.90
9776;DHT22;4927;52.472;13.108;2023-01-16T23:11:28;4.10;99.90
9776;DHT22;4927;52.472;13.108;2023-01-16T23:16:38;4.00;99.90
9776;DHT22;4927;52.472;13.108;2023-01-16T23:21:49;4.00;99.90
9776;DHT22;4927;52.472;13.108;2023-01-16T23:27:00;4.00;99.90
9776;DHT22;4927;52.472;13.108;2023-01-16T23:32:10;4.00;99.90
9776;DHT22;4927;52.472;13.108;2023-01-16T23:37:16;3.90;99.90
9776;DHT22;4927;52.472;13.108;2023-01-16T23:42:26;3.80;99.90
9776;DHT22;4927;52.472;13.108;2023-01-16T23:47:43;3.80;99.90
9776;DHT22;4927;52.472;13.108;2023-01-16T23:52:54;3.90;99.90
9776;DHT22;4927;52.472;13.108;2023-01-16T23:58:04;3.90;99.90
